sensor_id;sensor_type;location;lat;lon;timestamp;pressure;altitude;pressure_sealevel;temperature;humidity
68301;BME280;55146;47.468;18.806;2023-10-09T00:01:26;101042.03;;;10.54;60.05
68301;BME280;55146;47.468;18.806;2023-10-09T00:03:52;101048.28;;;10.50;60.08
68301;BME280;55146;47.468;18.806;2023-10-09T00:06:21;101045.44;;;10.45;59.83
68301;BME280;55146;47.468;18.806;2023-10-09T00:08:56;101029.78;;;10.45;60.12
68301;BME280;55146;47.468;18.806;2023-10-09T00:11:22;101027.63;;;10.47;60.06
68301;BME280;55146;47.468;18.806;2023-10-09T00:13:51;101027.09;;;10.50;59.73
68301;BME280;55146;47.468;18.806;2023-10-09T00:16:23;101032.03;;;10.48;60.35
68301;BME280;55146;47.468;18.806;2023-10-09T00:18:59;101034.22;;;10.46;60.70
68301;BME280;55146;47.468;18.806;2023-10-09T00:21:57;101040.03;;;10.50;61.08
68301;BME280;55146;47.468;18.806;2023-10-09T00:24:24;101035.53;;;10.44;61.86
68301;BME280;55146;47.468;18.806;2023-10-09T00:26:55;101028.78;;;10.51;61.47
68301;BME280;55146;47.468;18.806;2023-10-09T00:29:26;101031.03;;;10.54;61.91
68301;BME280;55146;47.468;18.806;2023-10-09T00:31:58;101024.69;;;10.54;62.06
68301;BME280;55146;47.468;18.806;2023-10-09T00:34:39;101022.28;;;10.58;61.56
68301;BME280;55146;47.468;18.806;2023-10-09T00:37:08;101014.00;;;10.58;61.37
68301;BME280;55146;47.468;18.806;2023-10-09T00:39:47;101010.66;;;10.55;61.64
68301;BME280;55146;47.468;18.806;2023-10-09T00:42:14;101017.53;;;10.53;61.30
68301;BME280;55146;47.468;18.806;2023-10-09T00:44:52;101016.78;;;10.58;61.29
68301;BME280;55146;47.468;18.806;2023-10-09T00:47:18;101007.94;;;10.55;61.37
68301;BME280;55146;47.468;18.806;2023-10-09T00:52:41;101007.38;;;10.53;62.37
68301;BME280;55146;47.468;18.806;2023-10-09T00:55:14;101012.09;;;10.58;61.97
68301;BME280;55146;47.468;18.806;2023-10-09T00:58:01;101020.94;;;10.60;61.84
68301;BME280;55146;47.468;18.806;2023-10-09T01:00:30;101019.03;;;10.61;61.83
68301;BME280;55146;47.468;18.806;2023-10-09T01:03:19;101017.38;;;10.60;61.77
68301;BME280;55146;47.468;18.806;2023-10-09T01:05:46;101011.84;;;10.60;61.44
68301;BME280;55146;47.468;18.806;2023-10-09T01:08:23;101010.78;;;10.61;61.94
68301;BME280;55146;47.468;18.806;2023-10-09T01:11:13;100995.59;;;10.58;62.32
68301;BME280;55146;47.468;18.806;2023-10-09T01:13:45;100997.56;;;10.63;62.62
68301;BME280;55146;47.468;18.806;2023-10-09T01:16:11;101000.50;;;10.56;62.51
68301;BME280;55146;47.468;18.806;2023-10-09T01:18:42;101008.50;;;10.58;62.43
68301;BME280;55146;47.468;18.806;2023-10-09T01:21:09;101006.66;;;10.63;62.76
68301;BME280;55146;47.468;18.806;2023-10-09T01:23:46;101007.75;;;10.62;62.80
68301;BME280;55146;47.468;18.806;2023-10-09T01:26:30;101010.84;;;10.66;62.66
68301;BME280;55146;47.468;18.806;2023-10-09T01:29:08;101003.84;;;10.58;62.74
68301;BME280;55146;47.468;18.806;2023-10-09T01:31:48;101023.63;;;10.55;62.17
68301;BME280;55146;47.468;18.806;2023-10-09T01:34:23;101014.78;;;10.53;61.73
68301;BME280;55146;47.468;18.806;2023-10-09T01:37:13;101017.84;;;10.57;61.91
68301;BME280;55146;47.468;18.806;2023-10-09T01:39:49;101020.59;;;10.57;62.29
68301;BME280;55146;47.468;18.806;2023-10-09T01:42:16;101012.94;;;10.59;62.44
68301;BME280;55146;47.468;18.806;2023-10-09T01:44:49;101013.53;;;10.61;62.17
68301;BME280;55146;47.468;18.806;2023-10-09T01:47:14;101018.62;;;10.52;62.88
68301;BME280;55146;47.468;18.806;2023-10-09T01:49:43;101026.03;;;10.51;62.99
68301;BME280;55146;47.468;18.806;2023-10-09T01:52:10;101027.94;;;10.51;62.96
68301;BME280;55146;47.468;18.806;2023-10-09T01:54:46;101030.22;;;10.54;62.62
68301;BME280;55146;47.468;18.806;2023-10-09T01:57:13;101032.44;;;10.57;62.48
68301;BME280;55146;47.468;18.806;2023-10-09T01:59:40;101034.34;;;10.57;62.91
68301;BME280;55146;47.468;18.806;2023-10-09T02:02:12;101037.69;;;10.59;63.03
68301;BME280;55146;47.468;18.806;2023-10-09T02:04:56;101036.38;;;10.61;63.36
68301;BME280;55146;47.468;18.806;2023-10-09T02:07:41;101022.63;;;10.61;63.54
68301;BME280;55146;47.468;18.806;2023-10-09T02:10:11;101016.00;;;10.62;63.33
68301;BME280;55146;47.468;18.806;2023-10-09T02:13:05;101014.38;;;10.61;63.97
68301;BME280;55146;47.468;18.806;2023-10-09T02:15:38;101001.28;;;10.51;63.35
68301;BME280;55146;47.468;18.806;2023-10-09T02:18:20;101004.59;;;10.53;62.47
68301;BME280;55146;47.468;18.806;2023-10-09T02:23:27;101015.69;;;10.59;62.86
68301;BME280;55146;47.468;18.806;2023-10-09T02:26:12;101010.78;;;10.61;63.03
68301;BME280;55146;47.468;18.806;2023-10-09T02:28:55;101004.09;;;10.57;62.16
68301;BME280;55146;47.468;18.806;2023-10-09T02:31:24;100998.28;;;10.53;62.96
68301;BME280;55146;47.468;18.806;2023-10-09T02:33:53;100986.44;;;10.52;62.78
68301;BME280;55146;47.468;18.806;2023-10-09T02:36:21;100983.69;;;10.52;62.72
68301;BME280;55146;47.468;18.806;2023-10-09T02:38:46;101000.69;;;10.49;62.37
68301;BME280;55146;47.468;18.806;2023-10-09T02:41:17;101000.59;;;10.44;62.82
68301;BME280;55146;47.468;18.806;2023-10-09T02:43:42;100995.09;;;10.44;63.11
68301;BME280;55146;47.468;18.806;2023-10-09T02:46:18;100976.94;;;10.43;63.26
68301;BME280;55146;47.468;18.806;2023-10-09T02:49:05;100962.63;;;10.41;63.42
68301;BME280;55146;47.468;18.806;2023-10-09T02:51:34;100961.19;;;10.39;63.63
68301;BME280;55146;47.468;18.806;2023-10-09T02:54:06;100964.19;;;10.37;63.47
68301;BME280;55146;47.468;18.806;2023-10-09T02:56:34;100974.09;;;10.38;63.42
68301;BME280;55146;47.468;18.806;2023-10-09T02:59:09;100972.19;;;10.39;63.25
68301;BME280;55146;47.468;18.806;2023-10-09T03:01:35;100982.69;;;10.42;63.08
68301;BME280;55146;47.468;18.806;2023-10-09T03:04:06;100991.12;;;10.35;61.71
68301;BME280;55146;47.468;18.806;2023-10-09T03:06:32;100997.13;;;10.32;62.23
68301;BME280;55146;47.468;18.806;2023-10-09T03:09:00;101000.22;;;10.36;62.18
68301;BME280;55146;47.468;18.806;2023-10-09T03:11:26;100994.72;;;10.36;62.24
68301;BME280;55146;47.468;18.806;2023-10-09T03:13:57;100967.22;;;10.36;61.32
68301;BME280;55146;47.468;18.806;2023-10-09T03:16:23;100959.78;;;10.36;61.89
68301;BME280;55146;47.468;18.806;2023-10-09T03:18:50;100952.03;;;10.33;61.64
68301;BME280;55146;47.468;18.806;2023-10-09T03:21:16;100957.38;;;10.23;62.27
68301;BME280;55146;47.468;18.806;2023-10-09T03:23:43;100957.94;;;10.25;62.26
68301;BME280;55146;47.468;18.806;2023-10-09T03:26:09;100959.53;;;10.21;62.71
68301;BME280;55146;47.468;18.806;2023-10-09T03:28:36;100948.38;;;10.28;62.63
68301;BME280;55146;47.468;18.806;2023-10-09T03:31:01;100951.19;;;10.33;62.71
68301;BME280;55146;47.468;18.806;2023-10-09T03:33:29;100950.59;;;10.31;62.55
68301;BME280;55146;47.468;18.806;2023-10-09T03:36:00;100960.81;;;10.30;62.62
68301;BME280;55146;47.468;18.806;2023-10-09T03:38:26;100954.72;;;10.28;62.66
68301;BME280;55146;47.468;18.806;2023-10-09T03:40:54;100959.00;;;10.07;62.88
68301;BME280;55146;47.468;18.806;2023-10-09T03:43:20;100966.53;;;10.12;62.94
68301;BME280;55146;47.468;18.806;2023-10-09T03:45:46;100966.13;;;10.20;63.78
68301;BME280;55146;47.468;18.806;2023-10-09T03:48:18;100968.47;;;10.28;64.34
68301;BME280;55146;47.468;18.806;2023-10-09T03:50:48;100961.34;;;10.32;64.81
68301;BME280;55146;47.468;18.806;2023-10-09T03:53:14;100966.03;;;10.32;64.92
68301;BME280;55146;47.468;18.806;2023-10-09T03:55:40;100961.59;;;10.31;63.32
68301;BME280;55146;47.468;18.806;2023-10-09T03:58:08;100965.72;;;10.28;63.06
68301;BME280;55146;47.468;18.806;2023-10-09T04:00:37;100951.72;;;10.30;63.67
68301;BME280;55146;47.468;18.806;2023-10-09T04:03:14;100953.09;;;10.32;63.65
68301;BME280;55146;47.468;18.806;2023-10-09T04:05:41;100960.03;;;10.35;63.72
68301;BME280;55146;47.468;18.806;2023-10-09T04:08:09;100958.38;;;10.34;63.54
68301;BME280;55146;47.468;18.806;2023-10-09T04:10:41;100956.22;;;10.36;63.19
68301;BME280;55146;47.468;18.806;2023-10-09T04:13:19;100952.37;;;10.37;62.26
68301;BME280;55146;47.468;18.806;2023-10-09T04:15:51;100941.38;;;10.37;62.70
68301;BME280;55146;47.468;18.806;2023-10-09T04:18:19;100944.12;;;10.37;62.51
68301;BME280;55146;47.468;18.806;2023-10-09T04:20:53;100951.78;;;10.35;62.63
68301;BME280;55146;47.468;18.806;2023-10-09T04:23:41;100949.88;;;10.35;62.71
68301;BME280;55146;47.468;18.806;2023-10-09T04:26:25;100943.72;;;10.28;61.92
68301;BME280;55146;47.468;18.806;2023-10-09T04:28:51;100940.97;;;10.28;62.19
68301;BME280;55146;47.468;18.806;2023-10-09T04:31:19;100941.78;;;10.29;62.71
68301;BME280;55146;47.468;18.806;2023-10-09T04:33:46;100926.13;;;10.29;62.71
68301;BME280;55146;47.468;18.806;2023-10-09T04:36:31;100935.47;;;10.28;63.27
68301;BME280;55146;47.468;18.806;2023-10-09T04:39:11;100925.28;;;10.29;63.07
68301;BME280;55146;47.468;18.806;2023-10-09T04:41:36;100932.78;;;10.33;63.18
68301;BME280;55146;47.468;18.806;2023-10-09T04:44:07;100920.47;;;10.36;63.28
68301;BME280;55146;47.468;18.806;2023-10-09T04:46:50;100915.19;;;10.34;62.96
68301;BME280;55146;47.468;18.806;2023-10-09T04:49:36;100910.72;;;10.28;62.30
68301;BME280;55146;47.468;18.806;2023-10-09T04:52:14;100920.28;;;10.26;62.75
68301;BME280;55146;47.468;18.806;2023-10-09T04:54:54;100907.72;;;10.30;62.87
68301;BME280;55146;47.468;18.806;2023-10-09T04:57:39;100903.38;;;10.34;62.69
68301;BME280;55146;47.468;18.806;2023-10-09T05:02:56;100900.38;;;10.35;61.58
68301;BME280;55146;47.468;18.806;2023-10-09T05:05:30;100900.84;;;10.32;62.02
68301;BME280;55146;47.468;18.806;2023-10-09T05:08:15;100896.19;;;10.33;62.33
68301;BME280;55146;47.468;18.806;2023-10-09T05:10:55;100886.03;;;10.33;62.29
68301;BME280;55146;47.468;18.806;2023-10-09T05:13:26;100892.28;;;10.29;62.43
68301;BME280;55146;47.468;18.806;2023-10-09T05:16:09;100884.13;;;10.34;62.86
68301;BME280;55146;47.468;18.806;2023-10-09T05:18:47;100883.88;;;10.35;62.38
68301;BME280;55146;47.468;18.806;2023-10-09T05:21:39;100880.59;;;10.38;62.46
68301;BME280;55146;47.468;18.806;2023-10-09T05:24:08;100883.16;;;10.45;62.83
68301;BME280;55146;47.468;18.806;2023-10-09T05:26:47;100883.75;;;10.47;62.66
68301;BME280;55146;47.468;18.806;2023-10-09T05:29:12;100894.41;;;10.43;62.04
68301;BME280;55146;47.468;18.806;2023-10-09T05:34:21;100881.91;;;10.52;62.73
68301;BME280;55146;47.468;18.806;2023-10-09T05:36:48;100893.50;;;10.54;61.83
68301;BME280;55146;47.468;18.806;2023-10-09T05:39:13;100896.25;;;10.54;61.48
68301;BME280;55146;47.468;18.806;2023-10-09T05:41:44;100894.03;;;10.57;61.57
68301;BME280;55146;47.468;18.806;2023-10-09T05:44:18;100906.22;;;10.61;61.79
68301;BME280;55146;47.468;18.806;2023-10-09T05:47:03;100927.72;;;10.64;61.39
68301;BME280;55146;47.468;18.806;2023-10-09T05:49:47;100943.62;;;10.62;60.44
68301;BME280;55146;47.468;18.806;2023-10-09T05:52:23;100931.53;;;10.63;61.05
68301;BME280;55146;47.468;18.806;2023-10-09T05:55:08;100917.84;;;10.68;61.58
68301;BME280;55146;47.468;18.806;2023-10-09T05:58:12;100900.25;;;10.69;62.18
68301;BME280;55146;47.468;18.806;2023-10-09T06:00:56;100903.78;;;10.64;60.97
68301;BME280;55146;47.468;18.806;2023-10-09T06:03:51;100891.94;;;10.64;60.44
68301;BME280;55146;47.468;18.806;2023-10-09T06:06:51;100887.53;;;10.63;60.60
68301;BME280;55146;47.468;18.806;2023-10-09T06:09:25;100883.38;;;10.60;60.05
68301;BME280;55146;47.468;18.806;2023-10-09T06:12:13;100886.69;;;10.62;60.52
68301;BME280;55146;47.468;18.806;2023-10-09T06:14:57;100865.56;;;10.68;60.59
68301;BME280;55146;47.468;18.806;2023-10-09T06:17:41;100864.50;;;10.69;60.49
68301;BME280;55146;47.468;18.806;2023-10-09T06:20:10;100860.66;;;10.70;60.37
68301;BME280;55146;47.468;18.806;2023-10-09T06:22:55;100863.03;;;10.83;58.36
68301;BME280;55146;47.468;18.806;2023-10-09T06:25:23;100859.12;;;10.79;57.74
68301;BME280;55146;47.468;18.806;2023-10-09T06:27:58;100869.16;;;10.68;57.73
68301;BME280;55146;47.468;18.806;2023-10-09T06:30:23;100860.91;;;10.68;57.37
68301;BME280;55146;47.468;18.806;2023-10-09T06:32:50;100860.66;;;10.70;56.97
68301;BME280;55146;47.468;18.806;2023-10-09T06:35:27;100864.69;;;10.62;57.84
68301;BME280;55146;47.468;18.806;2023-10-09T06:37:57;100868.25;;;10.63;57.78
68301;BME280;55146;47.468;18.806;2023-10-09T06:40:37;100869.09;;;10.63;57.17
68301;BME280;55146;47.468;18.806;2023-10-09T06:43:18;100868.53;;;10.61;57.34
68301;BME280;55146;47.468;18.806;2023-10-09T06:45:49;100873.09;;;10.72;56.85
68301;BME280;55146;47.468;18.806;2023-10-09T06:48:27;100864.19;;;10.65;56.45
68301;BME280;55146;47.468;18.806;2023-10-09T06:51:06;100862.50;;;10.64;56.64
68301;BME280;55146;47.468;18.806;2023-10-09T06:53:54;100858.94;;;10.64;57.27
68301;BME280;55146;47.468;18.806;2023-10-09T06:56:26;100855.97;;;10.70;55.91
68301;BME280;55146;47.468;18.806;2023-10-09T06:59:02;100856.50;;;10.67;55.32
68301;BME280;55146;47.468;18.806;2023-10-09T07:01:42;100846.41;;;10.73;55.17
68301;BME280;55146;47.468;18.806;2023-10-09T07:04:08;100846.31;;;10.68;54.46
68301;BME280;55146;47.468;18.806;2023-10-09T07:06:50;100836.13;;;10.68;54.40
68301;BME280;55146;47.468;18.806;2023-10-09T07:09:17;100829.78;;;10.89;54.24
68301;BME280;55146;47.468;18.806;2023-10-09T07:11:47;100831.75;;;10.94;53.79
68301;BME280;55146;47.468;18.806;2023-10-09T07:14:23;100833.44;;;10.95;53.45
68301;BME280;55146;47.468;18.806;2023-10-09T07:16:55;100833.44;;;10.95;53.14
68301;BME280;55146;47.468;18.806;2023-10-09T07:19:28;100841.50;;;11.02;53.15
68301;BME280;55146;47.468;18.806;2023-10-09T07:22:03;100841.31;;;10.86;52.76
68301;BME280;55146;47.468;18.806;2023-10-09T07:24:29;100827.66;;;10.97;52.20
68301;BME280;55146;47.468;18.806;2023-10-09T07:27:08;100832.94;;;10.98;52.64
68301;BME280;55146;47.468;18.806;2023-10-09T07:29:38;100817.78;;;11.01;53.08
68301;BME280;55146;47.468;18.806;2023-10-09T07:32:16;100808.41;;;10.97;51.77
68301;BME280;55146;47.468;18.806;2023-10-09T07:34:51;100784.03;;;11.10;51.33
68301;BME280;55146;47.468;18.806;2023-10-09T07:37:23;100776.63;;;11.11;50.96
68301;BME280;55146;47.468;18.806;2023-10-09T07:39:50;100758.47;;;11.15;50.52
68301;BME280;55146;47.468;18.806;2023-10-09T07:42:23;100749.41;;;11.19;51.24
68301;BME280;55146;47.468;18.806;2023-10-09T07:45:07;100741.97;;;11.20;51.37
68301;BME280;55146;47.468;18.806;2023-10-09T07:47:58;100733.75;;;11.25;51.32
68301;BME280;55146;47.468;18.806;2023-10-09T07:50:24;100734.12;;;11.33;50.53
68301;BME280;55146;47.468;18.806;2023-10-09T07:52:55;100717.12;;;11.47;49.76
68301;BME280;55146;47.468;18.806;2023-10-09T07:55:40;100711.53;;;11.36;50.36
68301;BME280;55146;47.468;18.806;2023-10-09T07:58:11;100709.94;;;11.41;50.93
68301;BME280;55146;47.468;18.806;2023-10-09T08:00:37;100703.41;;;11.57;49.31
68301;BME280;55146;47.468;18.806;2023-10-09T08:03:23;100701.94;;;11.44;50.44
68301;BME280;55146;47.468;18.806;2023-10-09T08:05:54;100710.59;;;11.58;48.49
68301;BME280;55146;47.468;18.806;2023-10-09T08:08:33;100712.47;;;11.52;49.73
68301;BME280;55146;47.468;18.806;2023-10-09T08:10:58;100715.56;;;11.61;47.59
68301;BME280;55146;47.468;18.806;2023-10-09T08:13:42;100713.97;;;11.70;46.44
68301;BME280;55146;47.468;18.806;2023-10-09T08:16:26;100702.13;;;11.69;47.21
68301;BME280;55146;47.468;18.806;2023-10-09T08:19:02;100694.75;;;11.80;45.60
68301;BME280;55146;47.468;18.806;2023-10-09T08:21:46;100692.03;;;11.85;45.56
68301;BME280;55146;47.468;18.806;2023-10-09T08:24:31;100682.72;;;11.96;44.20
68301;BME280;55146;47.468;18.806;2023-10-09T08:27:18;100676.59;;;11.84;44.28
68301;BME280;55146;47.468;18.806;2023-10-09T08:29:58;100679.38;;;11.89;44.78
68301;BME280;55146;47.468;18.806;2023-10-09T08:32:39;100672.53;;;12.02;43.67
68301;BME280;55146;47.468;18.806;2023-10-09T08:35:06;100675.06;;;12.13;43.91
68301;BME280;55146;47.468;18.806;2023-10-09T08:37:50;100672.31;;;12.24;43.25
68301;BME280;55146;47.468;18.806;2023-10-09T08:40:16;100670.13;;;12.15;43.36
68301;BME280;55146;47.468;18.806;2023-10-09T08:42:52;100661.88;;;12.26;42.65
68301;BME280;55146;47.468;18.806;2023-10-09T08:45:22;100655.00;;;12.43;42.14
68301;BME280;55146;47.468;18.806;2023-10-09T08:47:56;100652.81;;;12.61;42.00
68301;BME280;55146;47.468;18.806;2023-10-09T08:50:22;100655.59;;;12.76;42.07
68301;BME280;55146;47.468;18.806;2023-10-09T08:52:48;100652.00;;;12.90;41.37
68301;BME280;55146;47.468;18.806;2023-10-09T08:55:15;100642.59;;;12.96;41.37
68301;BME280;55146;47.468;18.806;2023-10-09T08:57:43;100648.44;;;13.20;40.13
68301;BME280;55146;47.468;18.806;2023-10-09T09:00:17;100643.72;;;13.36;39.57
68301;BME280;55146;47.468;18.806;2023-10-09T09:02:47;100645.62;;;13.46;40.94
68301;BME280;55146;47.468;18.806;2023-10-09T09:05:16;100642.28;;;13.59;40.57
68301;BME280;55146;47.468;18.806;2023-10-09T09:07:43;100627.59;;;13.68;39.60
68301;BME280;55146;47.468;18.806;2023-10-09T09:10:08;100625.06;;;13.77;39.91
68301;BME280;55146;47.468;18.806;2023-10-09T09:12:43;100611.75;;;13.94;40.26
68301;BME280;55146;47.468;18.806;2023-10-09T09:15:16;100611.91;;;14.08;39.46
68301;BME280;55146;47.468;18.806;2023-10-09T09:17:44;100612.12;;;14.22;38.43
68301;BME280;55146;47.468;18.806;2023-10-09T09:20:24;100603.78;;;14.27;38.11
68301;BME280;55146;47.468;18.806;2023-10-09T09:23:00;100612.31;;;14.35;38.71
68301;BME280;55146;47.468;18.806;2023-10-09T09:25:44;100608.66;;;14.50;39.36
68301;BME280;55146;47.468;18.806;2023-10-09T09:28:11;100608.03;;;14.58;37.79
68301;BME280;55146;47.468;18.806;2023-10-09T09:30:38;100604.69;;;14.61;38.27
68301;BME280;55146;47.468;18.806;2023-10-09T09:36:04;100596.75;;;15.12;37.13
68301;BME280;55146;47.468;18.806;2023-10-09T09:38:32;100598.84;;;15.25;37.22
68301;BME280;55146;47.468;18.806;2023-10-09T09:41:18;100603.28;;;15.26;36.12
68301;BME280;55146;47.468;18.806;2023-10-09T09:43:59;100608.66;;;15.13;37.08
68301;BME280;55146;47.468;18.806;2023-10-09T09:46:34;100608.97;;;15.11;37.51
68301;BME280;55146;47.468;18.806;2023-10-09T09:49:04;100587.88;;;15.15;37.69
68301;BME280;55146;47.468;18.806;2023-10-09T09:51:44;100582.38;;;15.10;37.14
68301;BME280;55146;47.468;18.806;2023-10-09T09:54:12;100583.72;;;15.13;37.45
68301;BME280;55146;47.468;18.806;2023-10-09T09:56:43;100580.13;;;15.12;37.61
68301;BME280;55146;47.468;18.806;2023-10-09T09:59:14;100576.09;;;15.28;37.59
68301;BME280;55146;47.468;18.806;2023-10-09T10:01:50;100575.34;;;15.47;37.53
68301;BME280;55146;47.468;18.806;2023-10-09T10:04:24;100569.25;;;15.45;37.51
68301;BME280;55146;47.468;18.806;2023-10-09T10:06:52;100573.09;;;15.49;37.75
68301;BME280;55146;47.468;18.806;2023-10-09T10:09:40;100567.75;;;15.57;37.30
68301;BME280;55146;47.468;18.806;2023-10-09T10:12:09;100549.44;;;15.56;37.12
68301;BME280;55146;47.468;18.806;2023-10-09T10:15:08;100535.91;;;15.50;38.72
68301;BME280;55146;47.468;18.806;2023-10-09T10:20:25;100506.50;;;15.54;36.88
68301;BME280;55146;47.468;18.806;2023-10-09T10:23:13;100519.53;;;15.29;36.43
68301;BME280;55146;47.468;18.806;2023-10-09T10:25:42;100499.03;;;15.30;36.31
68301;BME280;55146;47.468;18.806;2023-10-09T10:28:24;100485.19;;;15.25;36.73
68301;BME280;55146;47.468;18.806;2023-10-09T10:31:11;100477.19;;;15.24;37.82
68301;BME280;55146;47.468;18.806;2023-10-09T10:36:20;100470.50;;;15.25;37.37
68301;BME280;55146;47.468;18.806;2023-10-09T10:39:06;100468.13;;;15.37;37.23
68301;BME280;55146;47.468;18.806;2023-10-09T10:41:56;100461.94;;;15.45;36.70
68301;BME280;55146;47.468;18.806;2023-10-09T10:44:32;100454.72;;;15.68;36.28
68301;BME280;55146;47.468;18.806;2023-10-09T10:47:08;100431.94;;;15.90;36.43
68301;BME280;55146;47.468;18.806;2023-10-09T10:49:55;100437.44;;;16.08;36.15
68301;BME280;55146;47.468;18.806;2023-10-09T10:52:25;100435.94;;;16.16;35.59
68301;BME280;55146;47.468;18.806;2023-10-09T10:55:14;100431.25;;;16.30;36.19
68301;BME280;55146;47.468;18.806;2023-10-09T10:57:55;100436.25;;;16.47;37.11
68301;BME280;55146;47.468;18.806;2023-10-09T11:00:31;100439.41;;;16.86;35.19
68301;BME280;55146;47.468;18.806;2023-10-09T11:03:19;100443.53;;;16.89;36.59
68301;BME280;55146;47.468;18.806;2023-10-09T11:05:48;100414.28;;;17.19;34.74
68301;BME280;55146;47.468;18.806;2023-10-09T11:08:18;100389.16;;;17.24;35.48
68301;BME280;55146;47.468;18.806;2023-10-09T11:10:49;100385.87;;;17.22;35.25
68301;BME280;55146;47.468;18.806;2023-10-09T11:13:25;100408.31;;;17.12;36.31
68301;BME280;55146;47.468;18.806;2023-10-09T11:16:00;100437.13;;;17.29;38.77
68301;BME280;55146;47.468;18.806;2023-10-09T11:18:41;100432.19;;;17.40;37.96
68301;BME280;55146;47.468;18.806;2023-10-09T11:21:13;100413.37;;;17.59;36.48
68301;BME280;55146;47.468;18.806;2023-10-09T11:23:38;100413.78;;;17.03;37.10
68301;BME280;55146;47.468;18.806;2023-10-09T11:26:19;100399.25;;;16.92;35.92
68301;BME280;55146;47.468;18.806;2023-10-09T11:29:13;100392.06;;;16.91;37.75
68301;BME280;55146;47.468;18.806;2023-10-09T11:32:25;100407.59;;;17.20;39.07
68301;BME280;55146;47.468;18.806;2023-10-09T11:34:27;100404.88;;;17.28;37.65
68301;BME280;55146;47.468;18.806;2023-10-09T11:37:00;100405.72;;;17.29;38.25
68301;BME280;55146;47.468;18.806;2023-10-09T11:39:29;100423.34;;;17.24;39.54
68301;BME280;55146;47.468;18.806;2023-10-09T11:42:07;100451.38;;;17.14;39.27
68301;BME280;55146;47.468;18.806;2023-10-09T11:47:05;100438.28;;;17.15;40.25
68301;BME280;55146;47.468;18.806;2023-10-09T11:49:50;100440.13;;;17.19;39.40
68301;BME280;55146;47.468;18.806;2023-10-09T11:52:22;100433.25;;;17.03;41.34
68301;BME280;55146;47.468;18.806;2023-10-09T11:54:57;100427.69;;;17.03;40.23
68301;BME280;55146;47.468;18.806;2023-10-09T11:57:25;100402.56;;;17.08;39.35
68301;BME280;55146;47.468;18.806;2023-10-09T11:59:58;100417.06;;;17.05;39.42
68301;BME280;55146;47.468;18.806;2023-10-09T12:02:25;100404.81;;;16.92;40.76
68301;BME280;55146;47.468;18.806;2023-10-09T12:04:51;100413.87;;;16.98;39.21
68301;BME280;55146;47.468;18.806;2023-10-09T12:07:16;100400.50;;;17.00;39.97
68301;BME280;55146;47.468;18.806;2023-10-09T12:09:45;100407.00;;;16.82;41.59
68301;BME280;55146;47.468;18.806;2023-10-09T12:12:12;100383.94;;;16.81;42.73
68301;BME280;55146;47.468;18.806;2023-10-09T12:14:38;100368.81;;;16.87;43.12
68301;BME280;55146;47.468;18.806;2023-10-09T12:17:05;100362.81;;;16.94;43.05
68301;BME280;55146;47.468;18.806;2023-10-09T12:19:34;100361.28;;;16.88;44.98
68301;BME280;55146;47.468;18.806;2023-10-09T12:22:05;100360.06;;;16.80;44.88
68301;BME280;55146;47.468;18.806;2023-10-09T12:24:32;100359.84;;;16.77;45.18
68301;BME280;55146;47.468;18.806;2023-10-09T12:27:00;100353.06;;;16.96;46.36
68301;BME280;55146;47.468;18.806;2023-10-09T12:29:26;100358.09;;;17.08;47.71
68301;BME280;55146;47.468;18.806;2023-10-09T12:31:58;100349.75;;;16.94;46.99
68301;BME280;55146;47.468;18.806;2023-10-09T12:34:26;100341.06;;;17.10;47.50
68301;BME280;55146;47.468;18.806;2023-10-09T12:36:55;100319.22;;;17.17;44.50
68301;BME280;55146;47.468;18.806;2023-10-09T12:39:21;100312.13;;;17.24;43.79
68301;BME280;55146;47.468;18.806;2023-10-09T12:41:47;100325.00;;;17.20;45.88
68301;BME280;55146;47.468;18.806;2023-10-09T12:44:13;100330.19;;;17.35;47.36
68301;BME280;55146;47.468;18.806;2023-10-09T12:46:45;100342.25;;;17.45;46.06
68301;BME280;55146;47.468;18.806;2023-10-09T12:49:19;100338.19;;;17.51;45.22
68301;BME280;55146;47.468;18.806;2023-10-09T12:51:44;100331.28;;;17.48;48.70
68301;BME280;55146;47.468;18.806;2023-10-09T12:54:10;100324.63;;;17.35;47.71
68301;BME280;55146;47.468;18.806;2023-10-09T12:56:36;100329.59;;;17.38;49.79
68301;BME280;55146;47.468;18.806;2023-10-09T12:59:05;100314.72;;;17.43;49.73
68301;BME280;55146;47.468;18.806;2023-10-09T13:01:31;100315.63;;;17.52;49.87
68301;BME280;55146;47.468;18.806;2023-10-09T13:04:08;100318.72;;;17.51;52.16
68301;BME280;55146;47.468;18.806;2023-10-09T13:06:39;100318.81;;;17.23;52.43
68301;BME280;55146;47.468;18.806;2023-10-09T13:09:16;100318.53;;;17.11;53.71
68301;BME280;55146;47.468;18.806;2023-10-09T13:11:50;100320.66;;;16.78;56.63
68301;BME280;55146;47.468;18.806;2023-10-09T13:14:16;100307.91;;;16.77;57.86
68301;BME280;55146;47.468;18.806;2023-10-09T13:16:47;100309.44;;;16.70;58.38
68301;BME280;55146;47.468;18.806;2023-10-09T13:19:15;100309.50;;;16.51;58.95
68301;BME280;55146;47.468;18.806;2023-10-09T13:21:43;100310.22;;;16.56;58.18
68301;BME280;55146;47.468;18.806;2023-10-09T13:24:09;100308.34;;;16.11;59.43
68301;BME280;55146;47.468;18.806;2023-10-09T13:26:42;100304.34;;;16.31;58.24
68301;BME280;55146;47.468;18.806;2023-10-09T13:29:10;100305.78;;;16.42;58.68
68301;BME280;55146;47.468;18.806;2023-10-09T13:31:37;100305.91;;;16.37;59.98
68301;BME280;55146;47.468;18.806;2023-10-09T13:34:03;100311.16;;;16.38;62.51
68301;BME280;55146;47.468;18.806;2023-10-09T13:36:33;100311.87;;;16.44;64.17